Garfield, Illinois
Current Conditions -  °F | °C
As of 11:55 AM on Sunday 21 Dec 2014 (Local Time) from KC75 Reporting Station
Overcast Overcast  
Wind Chill: 31°   Ceiling: 2700
Heat Index: 37°   Visibility: 7mi
Dew Point: 31°   Wind: 8mph
Humidity: 78%   Direction: 170°S
Pressure: 30.12"   Gusts: NA
Location:  41.0632°N, 89.0208°W
Report Text: KC75 211755Z AUTO 17007KT 7SM OVC027 03/00 A3012 RMK AO2 T00301005 10030 20007
Loading
Personal Weather Stations






























Interactive Weather Map New forecast layout! Learn more

10-Day Weather Forecast

Advertisements
Track Severe Weather on mobile